Time;durP1;ratioP1;P1;durP2;ratioP2;P2;SDS_P1;SDS_P2;PMS_P1;PMS_P2;Temp;Humidity;BMP_temperature;BMP_pressure;BME280_temperature;BME280_humidity;BME280_pressure;Samples;Min_cycle;Max_cycle;Signal;HPM_P1;HPM_P2
2022/08/02 00:01:32;;;;;;;9.07;4.10;;;;;;;;;;5015774;28;20041;-75
2022/08/02 00:03:58;;;;;;;6.50;4.20;;;;;;;;;;5034977;28;20041;-75
2022/08/02 00:06:24;;;;;;;5.95;3.58;;;;;;;;;;5034839;28;20115;-75
2022/08/02 00:08:50;;;;;;;9.60;4.28;;;;;;;;;;5017461;28;20354;-76
2022/08/02 00:11:16;;;;;;;8.60;4.05;;;;;;;;;;5050226;28;20491;-76
2022/08/02 00:13:42;;;;;;;7.82;4.57;;;;;;;;;;5053911;28;20063;-75
2022/08/02 00:16:08;;;;;;;11.95;4.15;;;;;;;;;;5054290;28;20144;-76
2022/08/02 00:18:34;;;;;;;9.40;4.20;;;;;;;;;;5035089;28;20425;-76
2022/08/02 00:21:00;;;;;;;7.38;4.22;;;;;;;;;;5034999;28;20448;-76
2022/08/02 00:23:26;;;;;;;8.15;4.60;;;;;;;;;;5034896;28;20076;-76
2022/08/02 00:25:52;;;;;;;10.82;4.57;;;;;;;;;;5034903;28;20424;-74
2022/08/02 00:28:21;;;;;;;15.30;5.60;;;;;;;;;;5034490;28;20079;-75
2022/08/02 00:30:47;;;;;;;8.45;4.55;;;;;;;;;;5034777;28;20038;-75
2022/08/02 00:33:13;;;;;;;9.77;4.43;;;;;;;;;;5042663;28;20094;-75
2022/08/02 00:35:39;;;;;;;9.40;4.25;;;;;;;;;;5054586;28;20090;-75
2022/08/02 00:38:05;;;;;;;8.82;4.55;;;;;;;;;;5049674;28;20055;-74
2022/08/02 00:40:31;;;;;;;11.27;4.80;;;;;;;;;;5036286;28;20139;-75
2022/08/02 00:43:06;;;;;;;6.28;4.10;;;;;;;;;;5054626;28;20037;-74
2022/08/02 00:45:32;;;;;;;7.75;4.50;;;;;;;;;;5045952;28;20046;-76
2022/08/02 00:47:58;;;;;;;9.18;4.63;;;;;;;;;;5034127;28;20064;-75
2022/08/02 00:50:25;;;;;;;11.95;4.38;;;;;;;;;;5034380;28;20389;-75
2022/08/02 00:52:51;;;;;;;7.55;4.18;;;;;;;;;;5016544;28;20448;-75
2022/08/02 00:55:17;;;;;;;10.18;4.60;;;;;;;;;;5033941;28;20041;-75
2022/08/02 00:57:43;;;;;;;8.85;3.97;;;;;;;;;;5033802;28;20041;-75
2022/08/02 01:00:09;;;;;;;6.85;4.20;;;;;;;;;;5034251;28;20045;-75
2022/08/02 01:02:35;;;;;;;10.05;4.55;;;;;;;;;;5034414;28;20116;-75
2022/08/02 01:05:01;;;;;;;9.32;4.28;;;;;;;;;;5033650;28;20080;-75
2022/08/02 01:07:27;;;;;;;11.43;4.85;;;;;;;;;;5033696;28;20053;-75
2022/08/02 01:09:53;;;;;;;10.90;4.70;;;;;;;;;;5052857;28;20044;-76
2022/08/02 01:12:19;;;;;;;9.30;4.63;;;;;;;;;;5053758;28;20091;-75
2022/08/02 01:14:50;;;;;;;9.60;4.55;;;;;;;;;;5053998;28;20074;-75
2022/08/02 01:17:20;;;;;;;12.20;4.25;;;;;;;;;;5037310;28;20068;-75
2022/08/02 01:19:49;;;;;;;8.52;4.70;;;;;;;;;;5033727;28;20080;-75
2022/08/02 01:22:19;;;;;;;11.68;5.18;;;;;;;;;;5033675;28;20045;-75
2022/08/02 01:25:03;;;;;;;8.80;4.15;;;;;;;;;;5034957;28;20056;-75
2022/08/02 01:27:29;;;;;;;10.48;4.55;;;;;;;;;;5033064;28;20044;-75
2022/08/02 01:29:58;;;;;;;7.93;4.32;;;;;;;;;;5033394;28;20049;-75
2022/08/02 01:32:30;;;;;;;7.88;4.47;;;;;;;;;;5015543;28;20137;-75
2022/08/02 01:35:00;;;;;;;8.73;4.90;;;;;;;;;;4998934;28;20046;-75
2022/08/02 01:37:34;;;;;;;10.63;4.88;;;;;;;;;;5033016;28;20041;-75
2022/08/02 01:40:07;;;;;;;11.10;4.95;;;;;;;;;;5035714;28;20081;-75
2022/08/02 01:42:34;;;;;;;10.45;4.93;;;;;;;;;;5053598;28;20045;-75
2022/08/02 01:45:02;;;;;;;11.57;5.13;;;;;;;;;;5049408;28;20045;-75
2022/08/02 01:47:29;;;;;;;10.10;5.10;;;;;;;;;;5032896;28;20100;-74
2022/08/02 01:49:57;;;;;;;7.43;4.70;;;;;;;;;;5033406;28;20085;-75
2022/08/02 01:52:28;;;;;;;10.02;4.90;;;;;;;;;;5033208;28;20046;-75
2022/08/02 01:55:12;;;;;;;8.80;4.90;;;;;;;;;;5033484;28;20045;-75
2022/08/02 01:57:49;;;;;;;10.40;5.10;;;;;;;;;;4999520;28;20132;-74
2022/08/02 02:00:15;;;;;;;11.00;5.38;;;;;;;;;;5033330;28;20136;-74
2022/08/02 02:02:46;;;;;;;9.43;5.07;;;;;;;;;;5015583;28;20554;-75
2022/08/02 02:05:17;;;;;;;8.35;5.10;;;;;;;;;;5032957;28;20099;-75
2022/08/02 02:07:44;;;;;;;9.25;4.78;;;;;;;;;;5032039;28;20547;-74
2022/08/02 02:10:13;;;;;;;12.85;5.38;;;;;;;;;;5052997;28;20072;-75
2022/08/02 02:12:39;;;;;;;7.78;4.47;;;;;;;;;;5038218;28;20120;-75
2022/08/02 02:15:08;;;;;;;8.57;4.60;;;;;;;;;;5035819;28;20345;-75
2022/08/02 02:17:34;;;;;;;6.80;4.55;;;;;;;;;;5043591;28;20056;-75
2022/08/02 02:20:02;;;;;;;6.78;4.57;;;;;;;;;;5033965;28;20076;-76
2022/08/02 02:22:28;;;;;;;7.72;4.35;;;;;;;;;;5032535;28;20051;-75
2022/08/02 02:24:54;;;;;;;9.73;4.70;;;;;;;;;;5032468;28;20037;-75
2022/08/02 02:27:23;;;;;;;9.65;4.70;;;;;;;;;;5032488;28;20433;-75
2022/08/02 02:29:50;;;;;;;9.43;4.60;;;;;;;;;;5032781;28;20428;-76
2022/08/02 02:32:16;;;;;;;10.45;4.85;;;;;;;;;;5032708;28;20042;-75
2022/08/02 02:34:44;;;;;;;8.27;4.88;;;;;;;;;;5032539;28;20073;-75
2022/08/02 02:37:17;;;;;;;10.85;5.53;;;;;;;;;;5032388;28;20068;-76
2022/08/02 02:39:44;;;;;;;10.10;5.10;;;;;;;;;;5032562;28;20099;-75
2022/08/02 02:42:12;;;;;;;10.35;4.38;;;;;;;;;;5032889;28;20041;-75
2022/08/02 02:44:38;;;;;;;7.03;4.30;;;;;;;;;;5033935;28;20041;-75
2022/08/02 02:47:05;;;;;;;9.88;4.63;;;;;;;;;;5032947;28;20132;-75
2022/08/02 02:49:35;;;;;;;6.40;4.18;;;;;;;;;;5032486;28;20579;-75
2022/08/02 02:52:02;;;;;;;9.30;4.90;;;;;;;;;;5031204;28;20046;-75
2022/08/02 02:54:28;;;;;;;10.18;4.45;;;;;;;;;;5032636;28;20120;-76
2022/08/02 02:56:55;;;;;;;9.52;4.30;;;;;;;;;;5031997;28;20045;-76
2022/08/02 02:59:21;;;;;;;7.72;4.65;;;;;;;;;;5013795;28;20072;-76
2022/08/02 03:01:47;;;;;;;9.15;4.93;;;;;;;;;;5027373;28;20045;-76
2022/08/02 03:04:13;;;;;;;7.38;4.78;;;;;;;;;;5032541;28;20041;-76
2022/08/02 03:06:40;;;;;;;7.68;4.65;;;;;;;;;;5032586;28;20038;-75
2022/08/02 03:09:06;;;;;;;8.02;4.82;;;;;;;;;;5032076;28;20092;-75
2022/08/02 03:11:36;;;;;;;9.38;3.97;;;;;;;;;;5014520;28;20052;-75
2022/08/02 03:14:03;;;;;;;10.68;4.55;;;;;;;;;;5032561;28;20099;-75
2022/08/02 03:16:30;;;;;;;7.07;4.13;;;;;;;;;;5032532;28;20038;-75
2022/08/02 03:18:56;;;;;;;9.80;4.88;;;;;;;;;;5032889;28;20050;-75
2022/08/02 03:21:23;;;;;;;8.95;4.13;;;;;;;;;;5035833;28;20851;-75
2022/08/02 03:23:50;;;;;;;8.40;4.38;;;;;;;;;;5035976;28;20037;-75
2022/08/02 03:26:16;;;;;;;9.85;4.65;;;;;;;;;;5035983;28;20049;-75
2022/08/02 03:28:45;;;;;;;10.25;4.45;;;;;;;;;;5035610;28;20056;-75
2022/08/02 03:31:11;;;;;;;9.82;4.65;;;;;;;;;;5041507;28;20076;-75
2022/08/02 03:33:38;;;;;;;9.73;4.70;;;;;;;;;;5035811;28;20049;-75
2022/08/02 03:36:11;;;;;;;10.57;4.65;;;;;;;;;;5017835;28;20492;-75
2022/08/02 03:38:37;;;;;;;8.52;4.70;;;;;;;;;;5035815;28;20135;-75
2022/08/02 03:41:05;;;;;;;12.75;5.20;;;;;;;;;;5018850;28;20048;-75
2022/08/02 03:43:31;;;;;;;9.35;4.50;;;;;;;;;;5035654;28;20069;-75
2022/08/02 03:45:58;;;;;;;9.95;4.43;;;;;;;;;;5043456;28;20048;-75
2022/08/02 03:48:24;;;;;;;7.45;5.05;;;;;;;;;;5034414;28;20045;-75
2022/08/02 03:50:51;;;;;;;8.90;4.68;;;;;;;;;;5035525;28;20084;-75
2022/08/02 03:53:17;;;;;;;10.05;4.35;;;;;;;;;;5035545;28;20071;-75
2022/08/02 03:55:44;;;;;;;10.50;5.13;;;;;;;;;;5035474;28;20106;-75
2022/08/02 03:58:17;;;;;;;9.15;4.40;;;;;;;;;;5044848;28;20045;-75
2022/08/02 04:00:43;;;;;;;7.10;4.03;;;;;;;;;;5041643;28;20427;-76
2022/08/02 04:03:09;;;;;;;8.38;4.45;;;;;;;;;;5035396;28;20041;-75
2022/08/02 04:05:35;;;;;;;7.32;4.15;;;;;;;;;;5035638;28;20056;-74
2022/08/02 04:08:01;;;;;;;9.45;5.22;;;;;;;;;;5052437;28;20084;-75
2022/08/02 04:10:27;;;;;;;9.25;4.40;;;;;;;;;;5051051;28;20073;-75
2022/08/02 04:12:54;;;;;;;12.52;4.95;;;;;;;;;;5035025;28;20080;-74
2022/08/02 04:15:21;;;;;;;10.48;4.80;;;;;;;;;;5017757;28;20037;-75
2022/08/02 04:17:58;;;;;;;7.45;4.97;;;;;;;;;;5034612;28;20041;-75
2022/08/02 04:20:27;;;;;;;16.15;5.22;;;;;;;;;;5035055;28;20179;-74
2022/08/02 04:23:00;;;;;;;10.32;5.43;;;;;;;;;;5034934;28;20115;-75
2022/08/02 04:25:26;;;;;;;9.38;4.95;;;;;;;;;;5034635;28;20041;-75
2022/08/02 04:27:53;;;;;;;10.00;4.90;;;;;;;;;;5034027;28;20050;-75
2022/08/02 04:30:20;;;;;;;8.57;5.57;;;;;;;;;;5033913;28;20385;-75
2022/08/02 04:32:46;;;;;;;9.20;5.82;;;;;;;;;;5000430;28;20046;-75
2022/08/02 04:35:12;;;;;;;9.43;5.53;;;;;;;;;;5034717;28;20550;-74
2022/08/02 04:37:39;;;;;;;9.52;4.90;;;;;;;;;;5034508;28;20515;-75
2022/08/02 04:40:09;;;;;;;6.47;4.95;;;;;;;;;;5034302;28;20048;-75
2022/08/02 04:42:35;;;;;;;9.95;4.32;;;;;;;;;;5034123;28;20046;-74
2022/08/02 04:45:02;;;;;;;9.15;4.80;;;;;;;;;;5035883;28;20455;-75
2022/08/02 04:47:29;;;;;;;10.43;4.57;;;;;;;;;;5050156;28;20092;-75
2022/08/02 04:49:55;;;;;;;13.75;5.07;;;;;;;;;;5034596;28;20125;-75
2022/08/02 04:52:21;;;;;;;7.22;4.70;;;;;;;;;;5034435;28;20048;-74
2022/08/02 04:54:47;;;;;;;9.18;4.97;;;;;;;;;;5034193;28;20128;-75
2022/08/02 04:59:57;;;;;;;11.98;5.05;;;;;;;;;;5015008;28;20045;-76
2022/08/02 05:02:23;;;;;;;8.50;4.18;;;;;;;;;;5034221;28;20453;-75
2022/08/02 05:04:50;;;;;;;9.00;4.50;;;;;;;;;;5034117;28;20056;-76
2022/08/02 05:07:16;;;;;;;7.78;4.68;;;;;;;;;;5033467;28;20453;-76
2022/08/02 05:09:42;;;;;;;10.02;4.97;;;;;;;;;;5015135;28;20056;-76
2022/08/02 05:12:09;;;;;;;9.63;4.28;;;;;;;;;;5033596;28;20041;-75
2022/08/02 05:14:35;;;;;;;7.95;4.75;;;;;;;;;;5034156;28;20042;-76
2022/08/02 05:17:01;;;;;;;6.57;4.30;;;;;;;;;;5051326;28;20068;-75
2022/08/02 05:19:27;;;;;;;7.13;4.45;;;;;;;;;;5017577;28;20053;-73
2022/08/02 05:21:53;;;;;;;10.15;5.00;;;;;;;;;;5016210;28;20041;-76
2022/08/02 05:24:19;;;;;;;9.85;4.75;;;;;;;;;;5034024;28;20049;-75
2022/08/02 05:26:45;;;;;;;10.90;5.00;;;;;;;;;;5033968;28;20061;-75
2022/08/02 05:29:11;;;;;;;12.93;4.63;;;;;;;;;;5033574;28;20377;-75
2022/08/02 05:31:37;;;;;;;12.30;5.72;;;;;;;;;;5033768;28;20045;-75
2022/08/02 05:34:03;;;;;;;10.68;5.53;;;;;;;;;;5015671;28;20048;-75
2022/08/02 05:36:29;;;;;;;11.10;4.95;;;;;;;;;;5033820;28;20041;-76
2022/08/02 05:38:56;;;;;;;11.15;5.30;;;;;;;;;;5032125;28;20127;-75
2022/08/02 05:41:22;;;;;;;11.93;5.72;;;;;;;;;;5033189;28;20494;-75
2022/08/02 05:43:48;;;;;;;7.28;4.50;;;;;;;;;;5024896;28;20084;-75
2022/08/02 05:46:14;;;;;;;10.15;4.80;;;;;;;;;;5052766;28;20444;-75
2022/08/02 05:48:40;;;;;;;9.27;4.97;;;;;;;;;;5041067;28;20124;-76
2022/08/02 05:51:10;;;;;;;9.38;4.93;;;;;;;;;;5033444;28;20128;-75
2022/08/02 05:53:40;;;;;;;9.43;4.30;;;;;;;;;;5042964;28;20049;-75
2022/08/02 05:56:21;;;;;;;6.68;3.65;;;;;;;;;;5013550;28;20050;-75
2022/08/02 05:58:50;;;;;;;7.57;3.88;;;;;;;;;;5025006;28;20038;-76
2022/08/02 06:01:21;;;;;;;9.40;3.70;;;;;;;;;;5032980;28;20080;-75
2022/08/02 06:03:51;;;;;;;7.47;3.50;;;;;;;;;;5033211;28;20045;-79
2022/08/02 06:06:22;;;;;;;6.15;3.25;;;;;;;;;;5035054;28;20038;-74
2022/08/02 06:08:49;;;;;;;5.70;3.10;;;;;;;;;;5037006;28;20056;-75
2022/08/02 06:11:23;;;;;;;6.95;3.90;;;;;;;;;;5017936;28;20156;-76
2022/08/02 06:13:49;;;;;;;5.07;3.40;;;;;;;;;;5036654;28;20049;-75
2022/08/02 06:16:15;;;;;;;5.43;3.00;;;;;;;;;;5049116;28;20068;-74
2022/08/02 06:18:42;;;;;;;7.85;3.47;;;;;;;;;;5045715;28;20104;-74
2022/08/02 06:21:09;;;;;;;6.10;3.70;;;;;;;;;;5036045;28;20128;-74
2022/08/02 06:23:40;;;;;;;5.65;3.42;;;;;;;;;;5030914;28;20121;-74
2022/08/02 06:26:07;;;;;;;8.82;3.85;;;;;;;;;;5037162;28;20499;-75
2022/08/02 06:28:36;;;;;;;7.30;3.97;;;;;;;;;;5034954;28;20051;-74
2022/08/02 06:31:03;;;;;;;8.77;4.30;;;;;;;;;;5035906;28;20501;-74
2022/08/02 06:33:29;;;;;;;8.25;3.72;;;;;;;;;;5035966;28;20419;-74
2022/08/02 06:36:08;;;;;;;8.30;3.65;;;;;;;;;;5035455;28;20563;-73
2022/08/02 06:38:42;;;;;;;9.90;3.70;;;;;;;;;;5033979;28;20376;-74
2022/08/02 06:41:10;;;;;;;4.80;3.30;;;;;;;;;;5035710;28;20045;-74
2022/08/02 06:43:59;;;;;;;7.38;3.30;;;;;;;;;;5017009;28;20510;-74
2022/08/02 06:46:25;;;;;;;7.05;3.35;;;;;;;;;;5042746;28;20084;-74
2022/08/02 06:48:51;;;;;;;9.38;3.40;;;;;;;;;;5036071;28;20092;-75
2022/08/02 06:51:17;;;;;;;5.80;3.38;;;;;;;;;;5034650;28;20037;-74
2022/08/02 06:53:44;;;;;;;7.05;3.40;;;;;;;;;;5044723;28;20094;-74
2022/08/02 06:56:10;;;;;;;6.63;3.53;;;;;;;;;;5040803;28;20120;-74
2022/08/02 06:58:36;;;;;;;7.43;3.25;;;;;;;;;;5022171;28;20053;-74
2022/08/02 07:01:05;;;;;;;9.85;3.05;;;;;;;;;;5038356;28;20436;-75
2022/08/02 07:03:32;;;;;;;5.28;2.70;;;;;;;;;;5037236;28;20053;-80
2022/08/02 07:05:58;;;;;;;7.10;2.67;;;;;;;;;;5037705;28;20037;-75
2022/08/02 07:08:25;;;;;;;4.65;2.75;;;;;;;;;;5038799;28;20117;-75
2022/08/02 07:10:51;;;;;;;6.18;2.80;;;;;;;;;;5038900;28;20049;-75
2022/08/02 07:13:17;;;;;;;4.60;2.67;;;;;;;;;;5021449;28;20539;-74
2022/08/02 07:15:43;;;;;;;6.80;2.70;;;;;;;;;;5040954;28;20049;-76
2022/08/02 07:18:13;;;;;;;7.47;3.08;;;;;;;;;;5039743;28;20046;-76
2022/08/02 07:20:41;;;;;;;5.65;3.35;;;;;;;;;;5038594;28;20080;-76
2022/08/02 07:23:07;;;;;;;6.50;3.15;;;;;;;;;;5043305;28;20049;-75
2022/08/02 07:25:33;;;;;;;8.95;3.95;;;;;;;;;;5025543;28;20049;-75
2022/08/02 07:27:59;;;;;;;8.85;3.80;;;;;;;;;;5045012;28;20042;-74
2022/08/02 07:30:25;;;;;;;6.95;3.55;;;;;;;;;;5042278;28;20091;-76
2022/08/02 07:32:51;;;;;;;3.97;2.78;;;;;;;;;;5042031;28;20041;-75
2022/08/02 07:35:17;;;;;;;6.22;3.30;;;;;;;;;;5028576;28;20052;-74
2022/08/02 07:37:45;;;;;;;5.82;2.88;;;;;;;;;;5040723;28;20050;-74
2022/08/02 07:40:11;;;;;;;7.47;2.83;;;;;;;;;;5044429;28;20057;-74
2022/08/02 07:42:38;;;;;;;6.45;2.65;;;;;;;;;;5006196;28;20069;-75
2022/08/02 07:45:04;;;;;;;6.53;3.15;;;;;;;;;;5044922;28;20505;-75
2022/08/02 07:47:30;;;;;;;6.07;2.45;;;;;;;;;;5041326;28;20053;-75
2022/08/02 07:49:56;;;;;;;6.50;2.83;;;;;;;;;;5041487;28;20045;-76
2022/08/02 07:52:22;;;;;;;6.15;2.67;;;;;;;;;;5041012;28;20072;-75
2022/08/02 07:54:48;;;;;;;5.60;2.22;;;;;;;;;;5040527;28;20042;-75
2022/08/02 07:57:14;;;;;;;4.72;2.60;;;;;;;;;;5039675;28;20071;-74
2022/08/02 07:59:40;;;;;;;3.83;2.13;;;;;;;;;;5039419;28;20072;-74
2022/08/02 08:02:06;;;;;;;3.92;2.15;;;;;;;;;;5041075;28;20044;-75
2022/08/02 08:04:32;;;;;;;4.45;2.00;;;;;;;;;;5040170;28;20046;-75
2022/08/02 08:06:58;;;;;;;3.30;2.20;;;;;;;;;;5039932;28;20368;-75
2022/08/02 08:09:24;;;;;;;5.88;2.30;;;;;;;;;;5040801;28;20048;-75
2022/08/02 08:11:53;;;;;;;3.60;2.10;;;;;;;;;;5040876;28;20045;-74
2022/08/02 08:14:19;;;;;;;5.20;2.35;;;;;;;;;;5039148;28;20088;-75
2022/08/02 08:16:45;;;;;;;3.90;2.20;;;;;;;;;;5040363;28;20090;-75
2022/08/02 08:19:11;;;;;;;3.55;2.30;;;;;;;;;;5040683;28;20120;-75
2022/08/02 08:21:37;;;;;;;2.78;2.03;;;;;;;;;;5042454;28;20052;-75
2022/08/02 08:24:03;;;;;;;5.00;2.40;;;;;;;;;;5039578;28;20071;-76
2022/08/02 08:26:29;;;;;;;3.80;2.20;;;;;;;;;;5039616;28;20469;-75
2022/08/02 08:28:55;;;;;;;3.85;2.35;;;;;;;;;;5040394;28;20042;-75
2022/08/02 08:31:21;;;;;;;4.78;2.28;;;;;;;;;;5040887;28;20048;-75
2022/08/02 08:33:47;;;;;;;2.85;2.30;;;;;;;;;;5041429;28;20096;-75
2022/08/02 08:36:15;;;;;;;4.38;2.40;;;;;;;;;;5040017;28;20491;-75
2022/08/02 08:38:41;;;;;;;5.25;2.20;;;;;;;;;;5040687;28;20087;-75
2022/08/02 08:41:07;;;;;;;4.43;2.25;;;;;;;;;;5041846;28;20095;-76
2022/08/02 08:43:33;;;;;;;4.40;2.40;;;;;;;;;;5040487;28;20042;-75
2022/08/02 08:45:59;;;;;;;4.68;2.30;;;;;;;;;;5041169;28;20046;-75
2022/08/02 08:48:26;;;;;;;6.03;2.72;;;;;;;;;;5040427;28;20404;-74
2022/08/02 08:50:55;;;;;;;6.07;2.67;;;;;;;;;;5040898;28;20049;-75
2022/08/02 08:53:21;;;;;;;3.60;2.33;;;;;;;;;;5033534;28;20042;-74
2022/08/02 08:55:48;;;;;;;4.57;2.50;;;;;;;;;;5020361;28;20124;-75
2022/08/02 08:58:14;;;;;;;4.45;2.80;;;;;;;;;;5018831;28;20107;-74
2022/08/02 09:00:40;;;;;;;4.95;2.65;;;;;;;;;;5034600;28;20044;-76
2022/08/02 09:03:07;;;;;;;3.90;2.67;;;;;;;;;;5037830;28;20033;-76
2022/08/02 09:05:46;;;;;;;4.95;2.72;;;;;;;;;;5040963;28;20463;-79
2022/08/02 09:08:13;;;;;;;3.60;2.35;;;;;;;;;;5039460;28;20049;-75
2022/08/02 09:10:46;;;;;;;5.57;2.53;;;;;;;;;;5045807;28;20080;-75
2022/08/02 09:13:20;;;;;;;10.55;3.05;;;;;;;;;;5044786;28;20129;-75
2022/08/02 09:15:52;;;;;;;3.97;2.35;;;;;;;;;;5041937;28;20049;-75
2022/08/02 09:18:18;;;;;;;4.70;2.90;;;;;;;;;;5042950;28;20452;-75
2022/08/02 09:20:51;;;;;;;4.72;2.72;;;;;;;;;;5029690;28;20059;-75
2022/08/02 09:23:18;;;;;;;9.00;3.00;;;;;;;;;;5023233;28;20135;-75
2022/08/02 09:25:55;;;;;;;5.70;2.88;;;;;;;;;;5035585;28;20042;-75
2022/08/02 09:28:21;;;;;;;4.30;2.80;;;;;;;;;;5039450;28;20037;-76
2022/08/02 09:30:47;;;;;;;5.32;3.10;;;;;;;;;;5039011;28;20120;-76
2022/08/02 09:33:24;;;;;;;6.22;2.92;;;;;;;;;;5018514;28;20047;-76
2022/08/02 09:35:58;;;;;;;4.07;3.10;;;;;;;;;;5036235;28;20092;-75
2022/08/02 09:38:24;;;;;;;4.38;2.80;;;;;;;;;;5035136;28;20041;-77
2022/08/02 09:40:50;;;;;;;6.13;3.20;;;;;;;;;;5032834;28;20040;-75
2022/08/02 09:43:18;;;;;;;4.28;3.10;;;;;;;;;;5033271;28;20053;-78
2022/08/02 09:45:44;;;;;;;5.35;3.00;;;;;;;;;;5033351;28;20050;-77
2022/08/02 09:48:11;;;;;;;5.03;3.47;;;;;;;;;;5033237;28;20060;-76
2022/08/02 09:50:38;;;;;;;5.85;3.45;;;;;;;;;;5033260;28;20084;-76
2022/08/02 09:53:05;;;;;;;6.95;3.67;;;;;;;;;;5033375;28;20049;-77
2022/08/02 09:55:31;;;;;;;7.10;3.58;;;;;;;;;;5033777;28;20048;-76
2022/08/02 09:57:57;;;;;;;5.88;3.70;;;;;;;;;;5033395;28;20060;-84
2022/08/02 10:00:23;;;;;;;5.97;4.30;;;;;;;;;;5014193;28;20496;-76
2022/08/02 10:03:08;;;;;;;7.75;3.95;;;;;;;;;;5031645;28;20038;-76
2022/08/02 10:05:54;;;;;;;9.85;4.30;;;;;;;;;;5024172;28;20146;-77
2022/08/02 10:08:21;;;;;;;;;;;;;;;;;;5033847;28;20073;-76
2022/08/02 10:10:48;;;;;;;6.85;4.82;;;;;;;;;;5033172;28;19921;-86
2022/08/02 10:13:15;;;;;;;6.50;4.38;;;;;;;;;;5031088;28;20120;-78
2022/08/02 10:15:41;;;;;;;9.13;5.00;;;;;;;;;;5028661;28;20567;-76
2022/08/02 10:18:08;;;;;;;8.52;5.00;;;;;;;;;;5033231;28;20049;-77
2022/08/02 10:20:40;;;;;;;6.32;5.05;;;;;;;;;;5032767;28;20071;-76
2022/08/02 10:23:07;;;;;;;10.27;5.03;;;;;;;;;;5015584;28;20538;-76
2022/08/02 10:25:36;;;;;;;8.13;4.93;;;;;;;;;;5033201;28;20127;-77
2022/08/02 10:28:02;;;;;;;8.93;4.63;;;;;;;;;;5020071;28;20051;-76
2022/08/02 10:30:29;;;;;;;7.45;5.30;;;;;;;;;;5036810;28;20048;-76
2022/08/02 10:32:57;;;;;;;9.18;5.18;;;;;;;;;;5036575;28;20045;-76
2022/08/02 10:35:24;;;;;;;8.10;4.50;;;;;;;;;;5037423;28;20049;-77
2022/08/02 10:37:53;;;;;;;11.48;5.05;;;;;;;;;;5039318;28;20037;-77
2022/08/02 10:40:22;;;;;;;7.13;4.97;;;;;;;;;;5036534;28;20440;-75
2022/08/02 10:42:49;;;;;;;8.25;4.63;;;;;;;;;;5035852;28;20522;-77
2022/08/02 10:45:16;;;;;;;5.70;4.57;;;;;;;;;;5037223;28;20038;-76
2022/08/02 10:48:01;;;;;;;5.03;4.35;;;;;;;;;;5028310;28;20085;-77
2022/08/02 10:50:45;;;;;;;8.90;5.00;;;;;;;;;;5036074;28;20049;-76
2022/08/02 10:53:27;;;;;;;6.63;4.80;;;;;;;;;;5036693;28;20128;-77
2022/08/02 10:55:54;;;;;;;6.22;4.75;;;;;;;;;;5035775;28;20053;-76
2022/08/02 10:58:21;;;;;;;9.02;4.45;;;;;;;;;;5018593;28;20129;-76
2022/08/02 11:00:49;;;;;;;8.18;5.85;;;;;;;;;;5030927;28;20473;-76
2022/08/02 11:03:28;;;;;;;6.95;5.68;;;;;;;;;;5034693;28;20037;-74
2022/08/02 11:06:23;;;;;;;8.40;6.57;;;;;;;;;;5036649;28;20052;-75
2022/08/02 11:08:49;;;;;;;10.23;7.28;;;;;;;;;;5015267;28;20053;-76
2022/08/02 11:11:17;;;;;;;12.32;8.02;;;;;;;;;;5037168;28;20392;-76
2022/08/02 11:14:02;;;;;;;11.38;8.27;;;;;;;;;;5035570;28;20072;-77
2022/08/02 11:16:47;;;;;;;12.15;8.70;;;;;;;;;;5024553;28;20509;-77
2022/08/02 11:19:13;;;;;;;17.33;11.00;;;;;;;;;;5035861;28;20132;-75
2022/08/02 11:21:40;;;;;;;13.45;10.65;;;;;;;;;;5036340;28;20041;-80
2022/08/02 11:24:26;;;;;;;14.55;10.35;;;;;;;;;;5035992;28;20056;-74
2022/08/02 11:26:52;;;;;;;13.43;9.85;;;;;;;;;;5044433;28;20044;-75
2022/08/02 11:29:18;;;;;;;13.88;9.80;;;;;;;;;;5017762;28;20087;-75
2022/08/02 11:31:45;;;;;;;18.73;10.07;;;;;;;;;;5035375;28;20049;-75
2022/08/02 11:34:11;;;;;;;14.02;10.25;;;;;;;;;;5035950;28;20040;-74
2022/08/02 11:36:47;;;;;;;15.02;10.82;;;;;;;;;;5035830;28;20046;-75
2022/08/02 11:39:14;;;;;;;14.02;10.38;;;;;;;;;;5035389;28;20401;-75
2022/08/02 11:41:40;;;;;;;14.50;11.13;;;;;;;;;;5035676;28;20103;-75
2022/08/02 11:44:06;;;;;;;17.80;12.43;;;;;;;;;;5034988;28;20049;-75
2022/08/02 11:46:32;;;;;;;14.35;11.25;;;;;;;;;;5034726;28;20056;-75
2022/08/02 11:49:10;;;;;;;15.60;11.02;;;;;;;;;;5034587;28;20060;-76
2022/08/02 11:51:37;;;;;;;10.82;9.20;;;;;;;;;;5035578;28;20052;-75
2022/08/02 11:54:03;;;;;;;12.18;9.80;;;;;;;;;;5035704;28;20054;-75
2022/08/02 11:56:31;;;;;;;12.25;9.65;;;;;;;;;;5034198;28;20116;-75
2022/08/02 11:59:07;;;;;;;16.15;10.27;;;;;;;;;;5035517;28;20510;-75
2022/08/02 12:01:35;;;;;;;14.27;10.07;;;;;;;;;;5032902;28;20499;-74
2022/08/02 12:04:01;;;;;;;13.90;10.80;;;;;;;;;;5032150;28;20052;-76
2022/08/02 12:06:28;;;;;;;13.55;10.93;;;;;;;;;;5021558;28;20042;-81
2022/08/02 12:09:07;;;;;;;14.52;11.20;;;;;;;;;;5020296;28;20045;-76
2022/08/02 12:11:35;;;;;;;13.27;10.82;;;;;;;;;;5033860;28;20048;-75
2022/08/02 12:14:01;;;;;;;14.93;11.25;;;;;;;;;;5034924;28;20492;-75
2022/08/02 12:19:26;;;;;;;14.68;11.02;;;;;;;;;;5033409;28;20048;-76
2022/08/02 12:22:11;;;;;;;13.90;11.48;;;;;;;;;;5031381;28;20042;-75
2022/08/02 12:24:38;;;;;;;15.60;11.65;;;;;;;;;;5033955;28;20497;-75
2022/08/02 12:27:04;;;;;;;19.92;12.15;;;;;;;;;;5032856;28;20042;-76
2022/08/02 12:29:31;;;;;;;19.38;12.65;;;;;;;;;;5034074;28;20142;-75
2022/08/02 12:31:57;;;;;;;15.77;11.68;;;;;;;;;;5032215;28;20056;-76
2022/08/02 12:34:23;;;;;;;18.05;13.02;;;;;;;;;;5028827;28;20056;-76
2022/08/02 12:37:05;;;;;;;15.68;12.32;;;;;;;;;;5025604;28;20034;-75
2022/08/02 12:39:42;;;;;;;19.45;13.27;;;;;;;;;;5028937;28;20042;-76
2022/08/02 12:42:09;;;;;;;18.50;12.27;;;;;;;;;;5025293;28;20049;-76
2022/08/02 12:44:37;;;;;;;16.85;13.00;;;;;;;;;;5028200;28;20380;-75
2022/08/02 12:47:05;;;;;;;17.77;13.27;;;;;;;;;;5036792;28;20049;-75
2022/08/02 12:49:31;;;;;;;20.30;14.40;;;;;;;;;;5041937;28;20073;-76
2022/08/02 12:51:57;;;;;;;17.42;13.65;;;;;;;;;;5041716;28;20099;-76
2022/08/02 12:54:24;;;;;;;20.25;13.32;;;;;;;;;;5029920;28;20041;-76
2022/08/02 12:56:51;;;;;;;16.38;12.57;;;;;;;;;;5027267;28;20033;-78
2022/08/02 12:59:17;;;;;;;19.08;13.80;;;;;;;;;;5027604;28;20485;-77
2022/08/02 13:01:44;;;;;;;18.73;12.80;;;;;;;;;;5031057;28;20045;-76
2022/08/02 13:04:10;;;;;;;15.88;12.07;;;;;;;;;;5035804;28;20071;-76
2022/08/02 13:06:36;;;;;;;15.82;12.45;;;;;;;;;;5029697;28;20393;-76
2022/08/02 13:09:14;;;;;;;17.45;11.93;;;;;;;;;;5027629;28;20038;-76
2022/08/02 13:11:40;;;;;;;17.08;12.55;;;;;;;;;;5034725;28;20052;-77
2022/08/02 13:14:06;;;;;;;16.38;12.35;;;;;;;;;;5034551;28;20052;-81
2022/08/02 13:16:32;;;;;;;16.25;11.82;;;;;;;;;;5035556;28;20072;-85
2022/08/02 13:18:58;;;;;;;16.92;12.07;;;;;;;;;;5023787;28;20057;-76
2022/08/02 13:21:25;;;;;;;17.80;12.15;;;;;;;;;;5033525;28;20548;-76
2022/08/02 13:23:51;;;;;;;17.67;12.30;;;;;;;;;;5027003;28;20045;-76
2022/08/02 13:26:17;;;;;;;14.60;12.30;;;;;;;;;;5014412;28;20046;-76
2022/08/02 13:28:43;;;;;;;16.00;12.27;;;;;;;;;;5032515;28;20124;-76
2022/08/02 13:31:12;;;;;;;18.00;12.90;;;;;;;;;;5032044;28;20128;-76
2022/08/02 13:33:38;;;;;;;20.90;12.48;;;;;;;;;;5033546;28;20076;-76
2022/08/02 13:36:04;;;;;;;16.63;12.05;;;;;;;;;;5034077;28;20073;-76
2022/08/02 13:38:30;;;;;;;16.33;12.50;;;;;;;;;;5033698;28;20099;-76
2022/08/02 13:41:08;;;;;;;15.63;11.70;;;;;;;;;;5033888;28;20049;-76
2022/08/02 13:43:35;;;;;;;18.13;12.63;;;;;;;;;;5020211;28;20053;-76
2022/08/02 13:46:02;;;;;;;16.05;11.98;;;;;;;;;;5017128;28;20065;-78
2022/08/02 13:48:28;;;;;;;15.05;11.32;;;;;;;;;;5029681;28;20068;-77
2022/08/02 13:50:54;;;;;;;13.52;10.63;;;;;;;;;;5020164;28;20081;-80
2022/08/02 13:53:20;;;;;;;11.88;10.02;;;;;;;;;;5031537;28;20049;-75
2022/08/02 13:55:46;;;;;;;13.27;9.65;;;;;;;;;;5032832;28;20043;-75
2022/08/02 13:58:12;;;;;;;11.70;8.07;;;;;;;;;;5031749;28;20084;-76
2022/08/02 14:00:38;;;;;;;11.77;6.95;;;;;;;;;;5025915;28;20073;-83
2022/08/02 14:03:05;;;;;;;5.95;5.35;;;;;;;;;;5031916;28;20045;-76
2022/08/02 14:05:31;;;;;;;6.68;4.65;;;;;;;;;;5028194;28;20041;-76
2022/08/02 14:07:58;;;;;;;6.13;4.70;;;;;;;;;;5011024;28;20098;-76
2022/08/02 14:10:26;;;;;;;11.10;4.80;;;;;;;;;;5029968;28;20435;-76
2022/08/02 14:12:53;;;;;;;6.55;4.70;;;;;;;;;;5030687;28;20049;-76
2022/08/02 14:15:19;;;;;;;5.57;4.60;;;;;;;;;;5032285;28;20476;-77
2022/08/02 14:17:45;;;;;;;6.47;4.72;;;;;;;;;;5032976;28;20042;-76
2022/08/02 14:20:11;;;;;;;7.70;4.40;;;;;;;;;;5013549;28;20049;-77
2022/08/02 14:22:37;;;;;;;6.30;4.68;;;;;;;;;;5031580;28;20075;-76
2022/08/02 14:25:03;;;;;;;6.93;4.72;;;;;;;;;;5032610;28;20443;-75
2022/08/02 14:27:32;;;;;;;6.18;4.15;;;;;;;;;;5012900;28;20170;-76
2022/08/02 14:29:58;;;;;;;5.13;4.30;;;;;;;;;;5031277;28;20049;-76
2022/08/02 14:32:25;;;;;;;5.90;4.40;;;;;;;;;;5030855;28;20549;-76
2022/08/02 14:34:51;;;;;;;7.13;3.88;;;;;;;;;;5032129;28;20113;-75
2022/08/02 14:37:17;;;;;;;6.70;4.28;;;;;;;;;;5031950;28;20384;-76
2022/08/02 14:39:43;;;;;;;6.35;3.65;;;;;;;;;;5032597;28;20049;-76
2022/08/02 14:42:09;;;;;;;6.68;3.83;;;;;;;;;;5031636;28;20053;-76
2022/08/02 14:44:35;;;;;;;6.90;3.92;;;;;;;;;;5030936;28;20070;-76
2022/08/02 14:47:01;;;;;;;4.78;3.70;;;;;;;;;;5032232;28;20062;-76